PWSweather.com
Personal Weather Stations
Station Observations
KMNHANSK2
Thompson Farms, Hanska, MN 56041

Thompson FarmsHanska, MN 56041

Lat: 44.170119, Lon: -94.381619

Elevation: 1004

Station Type: Wireless Davis Instruments Vantage Pro2 Plus

http://www.somnwx.com/thompsonfarms/

High Low Average
Temperature 85.4°F29.7°F 68.3°F20.2°F 76.0°F24.4°F
Dew Point 77.7°F25.4°F 67.7°F19.8°F 71.9°F22.2°F
Winds 11.5 mph NW18.5 mph NW Calm Calm 4.5 mph 7.2 mph
Wind Gusts 16.1 mph25.9 mph -- 6.3 mph10.1 mph
Humidity 99% 69% 88%
Pressure 29.83 in1010.20 in 29.67 in1004.70 in -
Precipitation 0.00 in0.00 in - -
Hour Temp Dew Point Humidity Winds Wind Gusts Pressure Precip Precip Rate Daily Precip Total
12:00 AM 70.0°F21.1°C 69.1°F20.6°C 97% 4.6 mph NE7.4 kmh NE 6.9 mph11.1 kmh 29.76 in1007.8 mb - 0.00 in0.0 mm 0.00 in0.0 mm
12:10 AM 70.0°F21.1°C 69.1°F20.6°C 97% 4.6 mph NE7.4 kmh NE 5.8 mph9.3 kmh 29.76 in1007.8 mb - 0.00 in0.0 mm 0.00 in0.0 mm
12:15 AM 69.9°F21.1°C 69.0°F20.6°C 97% 4.6 mph NE7.4 kmh NE 5.8 mph9.3 kmh 29.76 in1007.8 mb - 0.00 in0.0 mm 0.00 in0.0 mm
12:20 AM 69.9°F21.1°C 69.0°F20.6°C 97% 4.6 mph NE7.4 kmh NE 6.9 mph11.1 kmh 29.77 in1008.1 mb - 0.00 in0.0 mm 0.00 in0.0 mm
12:25 AM 69.8°F21.0°C 69.0°F20.6°C 97% 4.6 mph NE7.4 kmh NE 4.6 mph7.4 kmh 29.77 in1008.1 mb - 0.00 in0.0 mm 0.00 in0.0 mm
12:30 AM 69.8°F21.0°C 68.9°F20.5°C 97% 4.6 mph ENE7.4 kmh ENE 6.9 mph11.1 kmh 29.76 in1007.8 mb - 0.00 in0.0 mm 0.00 in0.0 mm
12:35 AM 69.8°F21.0°C 68.9°F20.5°C 97% 4.6 mph ENE7.4 kmh ENE 6.9 mph11.1 kmh 29.75 in1007.5 mb - 0.00 in0.0 mm 0.00 in0.0 mm
12:40 AM 69.7°F20.9°C 68.8°F20.4°C 97% 4.6 mph ENE7.4 kmh ENE 6.9 mph11.1 kmh 29.75 in1007.5 mb - 0.00 in0.0 mm 0.00 in0.0 mm
12:45 AM 69.7°F20.9°C 68.8°F20.4°C 97% 4.6 mph ENE7.4 kmh ENE 8.1 mph13.0 kmh 29.75 in1007.5 mb - 0.00 in0.0 mm 0.00 in0.0 mm
12:50 AM 69.7°F20.9°C 68.8°F20.4°C 97% 4.6 mph ENE7.4 kmh ENE 6.9 mph11.1 kmh 29.75 in1007.5 mb - 0.00 in0.0 mm 0.00 in0.0 mm
12:55 AM 69.7°F20.9°C 68.8°F20.4°C 97% 3.5 mph ENE5.6 kmh ENE 3.5 mph5.6 kmh 29.75 in1007.5 mb - 0.00 in0.0 mm 0.00 in0.0 mm
01:00 AM 69.6°F20.9°C 68.4°F20.2°C 96% 3.5 mph ENE5.6 kmh ENE 4.6 mph7.4 kmh 29.75 in1007.5 mb - 0.00 in0.0 mm 0.00 in0.0 mm
01:10 AM 69.5°F20.8°C 68.3°F20.2°C 96% 3.5 mph ENE5.6 kmh ENE 3.5 mph5.6 kmh 29.75 in1007.5 mb - 0.00 in0.0 mm 0.00 in0.0 mm
01:15 AM 69.5°F20.8°C 68.3°F20.2°C 96% 2.3 mph E3.7 kmh E 3.5 mph5.6 kmh 29.75 in1007.5 mb - 0.00 in0.0 mm 0.00 in0.0 mm
01:20 AM 69.4°F20.8°C 68.2°F20.1°C 96% 2.3 mph ENE3.7 kmh ENE 3.5 mph5.6 kmh 29.77 in1008.1 mb - 0.00 in0.0 mm 0.00 in0.0 mm
01:25 AM 69.2°F20.7°C 68.0°F20.0°C 96% 3.5 mph NE5.6 kmh NE 4.6 mph7.4 kmh 29.77 in1008.1 mb - 0.00 in0.0 mm 0.00 in0.0 mm
01:30 AM 69.0°F20.6°C 68.1°F20.1°C 97% 2.3 mph E3.7 kmh E 4.6 mph7.4 kmh 29.77 in1008.1 mb - 0.00 in0.0 mm 0.00 in0.0 mm
01:35 AM 69.0°F20.6°C 68.1°F20.1°C 97% 3.5 mph ESE5.6 kmh ESE 5.8 mph9.3 kmh 29.77 in1008.1 mb - 0.00 in0.0 mm 0.00 in0.0 mm
01:40 AM 69.0°F20.6°C 68.1°F20.1°C 97% 4.6 mph E7.4 kmh E 8.1 mph13.0 kmh 29.77 in1008.1 mb - 0.00 in0.0 mm 0.00 in0.0 mm
01:45 AM 69.1°F20.6°C 68.2°F20.1°C 97% 4.6 mph ESE7.4 kmh ESE 6.9 mph11.1 kmh 29.77 in1008.1 mb - 0.00 in0.0 mm 0.00 in0.0 mm
01:50 AM 69.2°F20.7°C 68.3°F20.2°C 97% 5.8 mph ESE9.3 kmh ESE 6.9 mph11.1 kmh 29.77 in1008.1 mb - 0.00 in0.0 mm 0.00 in0.0 mm
01:55 AM 69.2°F20.7°C 68.3°F20.2°C 97% 5.8 mph E9.3 kmh E 6.9 mph11.1 kmh 29.77 in1008.1 mb - 0.00 in0.0 mm 0.00 in0.0 mm
02:00 AM 69.1°F20.6°C 68.2°F20.1°C 97% 4.6 mph ESE7.4 kmh ESE 8.1 mph13.0 kmh 29.76 in1007.8 mb - 0.00 in0.0 mm 0.00 in0.0 mm
02:10 AM 69.0°F20.6°C 68.1°F20.1°C 97% 3.5 mph ESE5.6 kmh ESE 5.8 mph9.3 kmh 29.76 in1007.8 mb - 0.00 in0.0 mm 0.00 in0.0 mm
02:15 AM 69.0°F20.6°C 68.1°F20.1°C 97% 3.5 mph SE5.6 kmh SE 4.6 mph7.4 kmh 29.76 in1007.8 mb - 0.00 in0.0 mm 0.00 in0.0 mm
02:20 AM 69.0°F20.6°C 68.1°F20.1°C 97% 5.8 mph SE9.3 kmh SE 8.1 mph13.0 kmh 29.76 in1007.8 mb - 0.00 in0.0 mm 0.00 in0.0 mm
02:25 AM 69.0°F20.6°C 68.1°F20.1°C 97% 5.8 mph SE9.3 kmh SE 8.1 mph13.0 kmh 29.76 in1007.8 mb - 0.00 in0.0 mm 0.00 in0.0 mm
02:30 AM 69.1°F20.6°C 68.5°F20.3°C 98% 4.6 mph SE7.4 kmh SE 5.8 mph9.3 kmh 29.76 in1007.8 mb - 0.00 in0.0 mm 0.00 in0.0 mm
02:35 AM 69.2°F20.7°C 68.6°F20.3°C 98% 6.9 mph SSE11.1 kmh SSE 8.1 mph13.0 kmh 29.76 in1007.8 mb - 0.00 in0.0 mm 0.00 in0.0 mm
02:40 AM 69.3°F20.7°C 68.7°F20.4°C 98% 6.9 mph SE11.1 kmh SE 9.2 mph14.8 kmh 29.75 in1007.5 mb - 0.00 in0.0 mm 0.00 in0.0 mm
02:45 AM 69.4°F20.8°C 68.8°F20.4°C 98% 3.5 mph SSE5.6 kmh SSE 6.9 mph11.1 kmh 29.76 in1007.8 mb - 0.00 in0.0 mm 0.00 in0.0 mm
02:50 AM 69.4°F20.8°C 68.8°F20.4°C 98% 2.3 mph SE3.7 kmh SE 3.5 mph5.6 kmh 29.77 in1008.1 mb - 0.00 in0.0 mm 0.00 in0.0 mm
02:55 AM 69.4°F20.8°C 68.8°F20.4°C 98% 2.3 mph SE3.7 kmh SE 3.5 mph5.6 kmh 29.78 in1008.5 mb - 0.00 in0.0 mm 0.00 in0.0 mm
03:00 AM 69.4°F20.8°C 68.8°F20.4°C 98% 2.3 mph SE3.7 kmh SE 3.5 mph5.6 kmh 29.79 in1008.8 mb - 0.00 in0.0 mm 0.00 in0.0 mm
03:10 AM 69.3°F20.7°C 68.7°F20.4°C 98% 1.2 mph SE1.9 kmh SE 1.2 mph1.9 kmh 29.80 in1009.1 mb - 0.00 in0.0 mm 0.00 in0.0 mm
03:15 AM 69.3°F20.7°C 68.7°F20.4°C 98% 1.2 mph SE1.9 kmh SE 2.3 mph3.7 kmh 29.80 in1009.1 mb - 0.00 in0.0 mm 0.00 in0.0 mm
03:20 AM 69.2°F20.7°C 68.6°F20.3°C 98% 2.3 mph ESE3.7 kmh ESE 2.3 mph3.7 kmh 29.80 in1009.1 mb - 0.00 in0.0 mm 0.00 in0.0 mm
03:25 AM 69.2°F20.7°C 68.6°F20.3°C 98% 2.3 mph SE3.7 kmh SE 3.5 mph5.6 kmh 29.80 in1009.1 mb - 0.00 in0.0 mm 0.00 in0.0 mm
03:30 AM 69.0°F20.6°C 68.1°F20.1°C 97% 2.3 mph SE3.7 kmh SE 4.6 mph7.4 kmh 29.79 in1008.8 mb - 0.00 in0.0 mm 0.00 in0.0 mm
03:35 AM 69.0°F20.6°C 68.4°F20.2°C 98% 2.3 mph SE3.7 kmh SE 3.5 mph5.6 kmh 29.78 in1008.5 mb - 0.00 in0.0 mm 0.00 in0.0 mm
03:40 AM 68.9°F20.5°C 68.3°F20.2°C 98% 3.5 mph SSE5.6 kmh SSE 4.6 mph7.4 kmh 29.78 in1008.5 mb - 0.00 in0.0 mm 0.00 in0.0 mm
03:45 AM 68.9°F20.5°C 68.3°F20.2°C 98% 4.6 mph SSE7.4 kmh SSE 5.8 mph9.3 kmh 29.78 in1008.5 mb - 0.00 in0.0 mm 0.00 in0.0 mm
03:50 AM 68.9°F20.5°C 68.3°F20.2°C 98% 4.6 mph SSE7.4 kmh SSE 5.8 mph9.3 kmh 29.77 in1008.1 mb - 0.00 in0.0 mm 0.00 in0.0 mm
03:55 AM 68.9°F20.5°C 68.3°F20.2°C 98% 4.6 mph S7.4 kmh S 4.6 mph7.4 kmh 29.77 in1008.1 mb - 0.00 in0.0 mm 0.00 in0.0 mm
04:00 AM 69.0°F20.6°C 68.4°F20.2°C 98% 5.8 mph S9.3 kmh S 5.8 mph9.3 kmh 29.77 in1008.1 mb - 0.00 in0.0 mm 0.00 in0.0 mm
04:10 AM 69.0°F20.6°C 68.4°F20.2°C 98% 3.5 mph SSW5.6 kmh SSW 4.6 mph7.4 kmh 29.77 in1008.1 mb - 0.00 in0.0 mm 0.00 in0.0 mm
04:15 AM 69.0°F20.6°C 68.4°F20.2°C 98% 3.5 mph SSW5.6 kmh SSW 5.8 mph9.3 kmh 29.77 in1008.1 mb - 0.00 in0.0 mm 0.00 in0.0 mm
04:20 AM 69.0°F20.6°C 68.4°F20.2°C 98% 4.6 mph SSW7.4 kmh SSW 4.6 mph7.4 kmh 29.77 in1008.1 mb - 0.00 in0.0 mm 0.00 in0.0 mm
04:25 AM 69.0°F20.6°C 68.4°F20.2°C 98% 5.8 mph S9.3 kmh S 6.9 mph11.1 kmh 29.77 in1008.1 mb - 0.00 in0.0 mm 0.00 in0.0 mm
04:30 AM 69.0°F20.6°C 68.4°F20.2°C 98% 5.8 mph SSW9.3 kmh SSW 5.8 mph9.3 kmh 29.77 in1008.1 mb - 0.00 in0.0 mm 0.00 in0.0 mm
04:35 AM 69.0°F20.6°C 68.4°F20.2°C 98% 5.8 mph SSW9.3 kmh SSW 6.9 mph11.1 kmh 29.76 in1007.8 mb - 0.00 in0.0 mm 0.00 in0.0 mm
04:40 AM 69.0°F20.6°C 68.4°F20.2°C 98% 5.8 mph SW9.3 kmh SW 6.9 mph11.1 kmh 29.76 in1007.8 mb - 0.00 in0.0 mm 0.00 in0.0 mm
04:45 AM 69.0°F20.6°C 68.4°F20.2°C 98% 6.9 mph SW11.1 kmh SW 9.2 mph14.8 kmh 29.75 in1007.5 mb - 0.00 in0.0 mm 0.00 in0.0 mm
04:50 AM 69.0°F20.6°C 68.4°F20.2°C 98% 5.8 mph SSW9.3 kmh SSW 6.9 mph11.1 kmh 29.74 in1007.1 mb - 0.00 in0.0 mm 0.00 in0.0 mm
04:55 AM 69.0°F20.6°C 68.4°F20.2°C 98% 8.1 mph S13.0 kmh S 11.5 mph18.5 kmh 29.72 in1006.4 mb - 0.00 in0.0 mm 0.00 in0.0 mm
05:00 AM 69.0°F20.6°C 68.4°F20.2°C 98% 9.2 mph SSE14.8 kmh SSE 11.5 mph18.5 kmh 29.70 in1005.8 mb - 0.00 in0.0 mm 0.00 in0.0 mm
05:10 AM 68.9°F20.5°C 68.3°F20.2°C 98% 2.3 mph E3.7 kmh E 3.5 mph5.6 kmh 29.70 in1005.8 mb - 0.00 in0.0 mm 0.00 in0.0 mm
05:15 AM 68.8°F20.4°C 68.2°F20.1°C 98% 2.3 mph ESE3.7 kmh ESE 3.5 mph5.6 kmh 29.69 in1005.4 mb - 0.00 in0.0 mm 0.00 in0.0 mm
05:20 AM 68.7°F20.4°C 68.1°F20.1°C 98% 5.8 mph SE9.3 kmh SE 8.1 mph13.0 kmh 29.68 in1005.1 mb - 0.00 in0.0 mm 0.00 in0.0 mm
05:25 AM 68.5°F20.3°C 68.0°F20.0°C 98% 6.9 mph SE11.1 kmh SE 9.2 mph14.8 kmh 29.67 in1004.7 mb - 0.00 in0.0 mm 0.00 in0.0 mm
05:30 AM 68.5°F20.3°C 68.2°F20.1°C 99% 6.9 mph S11.1 kmh S 8.1 mph13.0 kmh 29.68 in1005.1 mb - 0.00 in0.0 mm 0.00 in0.0 mm
05:35 AM 68.5°F20.3°C 68.2°F20.1°C 99% 8.1 mph S13.0 kmh S 10.4 mph16.7 kmh 29.69 in1005.4 mb - 0.00 in0.0 mm 0.00 in0.0 mm
05:40 AM 68.5°F20.3°C 68.3°F20.2°C 99% 6.9 mph SSE11.1 kmh SSE 11.5 mph18.5 kmh 29.70 in1005.8 mb - 0.00 in0.0 mm 0.00 in0.0 mm
05:45 AM 68.6°F20.3°C 68.3°F20.2°C 99% 5.8 mph SSE9.3 kmh SSE 8.1 mph13.0 kmh 29.70 in1005.8 mb - 0.00 in0.0 mm 0.00 in0.0 mm
05:50 AM 68.5°F20.3°C 67.9°F19.9°C 98% 4.6 mph S7.4 kmh S 6.9 mph11.1 kmh 29.71 in1006.1 mb - 0.00 in0.0 mm 0.00 in0.0 mm
05:55 AM 68.4°F20.2°C 67.8°F19.9°C 98% 3.5 mph SE5.6 kmh SE 4.6 mph7.4 kmh 29.71 in1006.1 mb - 0.00 in0.0 mm 0.00 in0.0 mm
06:00 AM 68.3°F20.2°C 67.7°F19.8°C 98% 3.5 mph SSE5.6 kmh SSE 4.6 mph7.4 kmh 29.72 in1006.4 mb - 0.00 in0.0 mm 0.00 in0.0 mm
06:10 AM 68.3°F20.2°C 68.0°F20.0°C 99% 3.5 mph S5.6 kmh S 4.6 mph7.4 kmh 29.73 in1006.8 mb - 0.00 in0.0 mm 0.00 in0.0 mm
06:15 AM 68.4°F20.2°C 68.1°F20.1°C 99% 4.6 mph SSW7.4 kmh SSW 4.6 mph7.4 kmh 29.73 in1006.8 mb - 0.00 in0.0 mm 0.00 in0.0 mm
06:20 AM 68.4°F20.2°C 68.1°F20.1°C 99% 4.6 mph SW7.4 kmh SW 4.6 mph7.4 kmh 29.74 in1007.1 mb - 0.00 in0.0 mm 0.00 in0.0 mm
06:25 AM 68.5°F20.3°C 68.2°F20.1°C 99% Calm Calm 1.2 mph1.9 kmh 29.75 in1007.5 mb - 0.00 in0.0 mm 0.00 in0.0 mm
06:30 AM 68.6°F20.3°C 68.3°F20.2°C 99% 1.2 mph NW1.9 kmh NW 2.3 mph3.7 kmh 29.75 in1007.5 mb - 0.00 in0.0 mm 0.00 in0.0 mm
06:35 AM 68.8°F20.4°C 68.5°F20.3°C 99% 2.3 mph NW3.7 kmh NW 3.5 mph5.6 kmh 29.76 in1007.8 mb - 0.00 in0.0 mm 0.00 in0.0 mm
06:40 AM 68.9°F20.5°C 68.6°F20.3°C 99% 1.2 mph NE1.9 kmh NE 3.5 mph5.6 kmh 29.76 in1007.8 mb - 0.00 in0.0 mm 0.00 in0.0 mm
06:45 AM 69.0°F20.6°C 68.7°F20.4°C 99% 1.2 mph NW1.9 kmh NW 2.3 mph3.7 kmh 29.77 in1008.1 mb - 0.00 in0.0 mm 0.00 in0.0 mm
06:50 AM 69.0°F20.6°C 68.7°F20.4°C 99% 1.2 mph WNW1.9 kmh WNW 2.3 mph3.7 kmh 29.76 in1007.8 mb - 0.00 in0.0 mm 0.00 in0.0 mm
06:55 AM 69.1°F20.6°C 68.8°F20.4°C 99% Calm Calm -- 29.77 in1008.1 mb - 0.00 in0.0 mm 0.00 in0.0 mm
07:00 AM 69.3°F20.7°C 69.0°F20.6°C 99% 2.3 mph WNW3.7 kmh WNW 3.5 mph5.6 kmh 29.77 in1008.1 mb - 0.00 in0.0 mm 0.00 in0.0 mm
07:10 AM 69.5°F20.8°C 69.2°F20.7°C 99% 1.2 mph NW1.9 kmh NW 2.3 mph3.7 kmh 29.78 in1008.5 mb - 0.00 in0.0 mm 0.00 in0.0 mm
07:15 AM 69.6°F20.9°C 69.3°F20.7°C 99% 3.5 mph W5.6 kmh W 6.9 mph11.1 kmh 29.79 in1008.8 mb - 0.00 in0.0 mm 0.00 in0.0 mm
07:20 AM 69.4°F20.8°C 69.1°F20.6°C 99% 4.6 mph NW7.4 kmh NW 6.9 mph11.1 kmh 29.79 in1008.8 mb - 0.00 in0.0 mm 0.00 in0.0 mm
07:25 AM 69.4°F20.8°C 69.1°F20.6°C 99% 4.6 mph NW7.4 kmh NW 8.1 mph13.0 kmh 29.79 in1008.8 mb - 0.00 in0.0 mm 0.00 in0.0 mm
07:30 AM 69.4°F20.8°C 69.1°F20.6°C 99% 3.5 mph WNW5.6 kmh WNW 4.6 mph7.4 kmh 29.80 in1009.1 mb - 0.00 in0.0 mm 0.00 in0.0 mm
07:35 AM 69.5°F20.8°C 69.2°F20.7°C 99% 9.2 mph NW14.8 kmh NW 11.5 mph18.5 kmh 29.80 in1009.1 mb - 0.00 in0.0 mm 0.00 in0.0 mm
07:40 AM 69.6°F20.9°C 69.3°F20.7°C 99% 8.1 mph NW13.0 kmh NW 10.4 mph16.7 kmh 29.80 in1009.1 mb - 0.00 in0.0 mm 0.00 in0.0 mm
07:45 AM 69.7°F20.9°C 69.4°F20.8°C 99% 8.1 mph NW13.0 kmh NW 12.7 mph20.4 kmh 29.80 in1009.1 mb - 0.00 in0.0 mm 0.00 in0.0 mm
07:50 AM 69.8°F21.0°C 69.5°F20.8°C 99% 6.9 mph NW11.1 kmh NW 11.5 mph18.5 kmh 29.80 in1009.1 mb - 0.00 in0.0 mm 0.00 in0.0 mm
07:55 AM 69.9°F21.1°C 69.6°F20.9°C 99% 5.8 mph NW9.3 kmh NW 8.1 mph13.0 kmh 29.80 in1009.1 mb - 0.00 in0.0 mm 0.00 in0.0 mm
08:00 AM 70.1°F21.2°C 69.8°F21.0°C 99% 6.9 mph NW11.1 kmh NW 12.7 mph20.4 kmh 29.80 in1009.1 mb - 0.00 in0.0 mm 0.00 in0.0 mm
08:10 AM 70.3°F21.3°C 70.0°F21.1°C 99% 6.9 mph NW11.1 kmh NW 12.7 mph20.4 kmh 29.80 in1009.1 mb - 0.00 in0.0 mm 0.00 in0.0 mm
08:15 AM 70.4°F21.3°C 70.1°F21.2°C 99% 6.9 mph NW11.1 kmh NW 6.9 mph11.1 kmh 29.81 in1009.5 mb - 0.00 in0.0 mm 0.00 in0.0 mm
08:20 AM 70.5°F21.4°C 70.2°F21.2°C 99% 10.4 mph NW16.7 kmh NW 11.5 mph18.5 kmh 29.81 in1009.5 mb - 0.00 in0.0 mm 0.00 in0.0 mm
08:25 AM 70.5°F21.4°C 70.2°F21.2°C 99% 8.1 mph NW13.0 kmh NW 11.5 mph18.5 kmh 29.81 in1009.5 mb - 0.00 in0.0 mm 0.00 in0.0 mm
08:30 AM 70.6°F21.4°C 70.3°F21.3°C 99% 8.1 mph NNW13.0 kmh NNW 12.7 mph20.4 kmh 29.82 in1009.8 mb - 0.00 in0.0 mm 0.00 in0.0 mm
08:35 AM 71.1°F21.7°C 70.8°F21.6°C 99% 8.1 mph NW13.0 kmh NW 11.5 mph18.5 kmh 29.82 in1009.8 mb - 0.00 in0.0 mm 0.00 in0.0 mm
08:40 AM 71.4°F21.9°C 71.1°F21.7°C 99% 6.9 mph NNW11.1 kmh NNW 12.7 mph20.4 kmh 29.82 in1009.8 mb - 0.00 in0.0 mm 0.00 in0.0 mm
08:45 AM 71.7°F22.1°C 71.1°F21.7°C 98% 6.9 mph NNW11.1 kmh NNW 9.2 mph14.8 kmh 29.83 in1010.2 mb - 0.00 in0.0 mm 0.00 in0.0 mm
08:50 AM 71.9°F22.2°C 71.3°F21.8°C 98% 8.1 mph N13.0 kmh N 11.5 mph18.5 kmh 29.83 in1010.2 mb - 0.00 in0.0 mm 0.00 in0.0 mm
08:55 AM 72.0°F22.2°C 71.4°F21.9°C 98% 6.9 mph N11.1 kmh N 10.4 mph16.7 kmh 29.83 in1010.2 mb - 0.00 in0.0 mm 0.00 in0.0 mm
09:00 AM 72.1°F22.3°C 71.2°F21.8°C 97% 8.1 mph N13.0 kmh N 11.5 mph18.5 kmh 29.83 in1010.2 mb - 0.00 in0.0 mm 0.00 in0.0 mm
09:10 AM 72.4°F22.4°C 71.5°F21.9°C 97% 6.9 mph N11.1 kmh N 10.4 mph16.7 kmh 29.83 in1010.2 mb - 0.00 in0.0 mm 0.00 in0.0 mm
09:15 AM 72.6°F22.6°C 71.4°F21.9°C 96% 6.9 mph N11.1 kmh N 8.1 mph13.0 kmh 29.83 in1010.2 mb - 0.00 in0.0 mm 0.00 in0.0 mm
09:20 AM 73.0°F22.8°C 71.5°F21.9°C 95% 5.8 mph N9.3 kmh N 8.1 mph13.0 kmh 29.82 in1009.8 mb - 0.00 in0.0 mm 0.00 in0.0 mm
09:25 AM 73.6°F23.1°C 72.1°F22.3°C 95% 6.9 mph N11.1 kmh N 9.2 mph14.8 kmh 29.82 in1009.8 mb - 0.00 in0.0 mm 0.00 in0.0 mm
09:30 AM 73.9°F23.3°C 71.7°F22.1°C 93% 8.1 mph N13.0 kmh N 11.5 mph18.5 kmh 29.82 in1009.8 mb - 0.00 in0.0 mm 0.00 in0.0 mm
09:35 AM 74.7°F23.7°C 72.5°F22.5°C 93% 6.9 mph N11.1 kmh N 11.5 mph18.5 kmh 29.82 in1009.8 mb - 0.00 in0.0 mm 0.00 in0.0 mm
09:40 AM 74.9°F23.8°C 72.1°F22.3°C 91% 8.1 mph N13.0 kmh N 9.2 mph14.8 kmh 29.82 in1009.8 mb - 0.00 in0.0 mm 0.00 in0.0 mm
09:45 AM 75.4°F24.1°C 72.6°F22.6°C 91% 6.9 mph NNE11.1 kmh NNE 10.4 mph16.7 kmh 29.82 in1009.8 mb - 0.00 in0.0 mm 0.00 in0.0 mm
09:50 AM 75.7°F24.3°C 72.6°F22.6°C 90% 6.9 mph N11.1 kmh N 12.7 mph20.4 kmh 29.82 in1009.8 mb - 0.00 in0.0 mm 0.00 in0.0 mm
09:55 AM 76.0°F24.4°C 72.5°F22.5°C 89% 5.8 mph N9.3 kmh N 9.2 mph14.8 kmh 29.82 in1009.8 mb - 0.00 in0.0 mm 0.00 in0.0 mm
10:00 AM 76.2°F24.6°C 72.4°F22.4°C 88% 5.8 mph N9.3 kmh N 9.2 mph14.8 kmh 29.82 in1009.8 mb - 0.00 in0.0 mm 0.00 in0.0 mm
10:10 AM 76.6°F24.8°C 72.8°F22.7°C 88% 6.9 mph NE11.1 kmh NE 9.2 mph14.8 kmh 29.82 in1009.8 mb - 0.00 in0.0 mm 0.00 in0.0 mm
10:15 AM 76.6°F24.8°C 72.1°F22.3°C 86% 5.8 mph NE9.3 kmh NE 6.9 mph11.1 kmh 29.82 in1009.8 mb - 0.00 in0.0 mm 0.00 in0.0 mm
10:20 AM 76.6°F24.8°C 72.4°F22.4°C 87% 3.5 mph NNE5.6 kmh NNE 5.8 mph9.3 kmh 29.82 in1009.8 mb - 0.00 in0.0 mm 0.00 in0.0 mm
10:25 AM 77.0°F25.0°C 72.8°F22.7°C 87% 2.3 mph N3.7 kmh N 3.5 mph5.6 kmh 29.82 in1009.8 mb - 0.00 in0.0 mm 0.00 in0.0 mm
10:30 AM 77.2°F25.1°C 72.7°F22.6°C 86% 5.8 mph NE9.3 kmh NE 8.1 mph13.0 kmh 29.81 in1009.5 mb - 0.00 in0.0 mm 0.00 in0.0 mm
10:35 AM 77.3°F25.2°C 72.1°F22.3°C 84% 3.5 mph NE5.6 kmh NE 3.5 mph5.6 kmh 29.81 in1009.5 mb - 0.00 in0.0 mm 0.00 in0.0 mm
10:40 AM 77.8°F25.4°C 73.2°F22.9°C 86% 5.8 mph NE9.3 kmh NE 8.1 mph13.0 kmh 29.81 in1009.5 mb - 0.00 in0.0 mm 0.00 in0.0 mm
10:45 AM 77.6°F25.3°C 72.4°F22.4°C 84% 3.5 mph NE5.6 kmh NE 3.5 mph5.6 kmh 29.81 in1009.5 mb - 0.00 in0.0 mm 0.00 in0.0 mm
10:50 AM 77.4°F25.2°C 72.2°F22.3°C 84% 3.5 mph NNE5.6 kmh NNE 3.5 mph5.6 kmh 29.81 in1009.5 mb - 0.00 in0.0 mm 0.00 in0.0 mm
10:55 AM 77.7°F25.4°C 73.1°F22.8°C 86% 3.5 mph E5.6 kmh E 6.9 mph11.1 kmh 29.81 in1009.5 mb - 0.00 in0.0 mm 0.00 in0.0 mm
11:00 AM 77.8°F25.4°C 72.2°F22.3°C 83% 2.3 mph NE3.7 kmh NE 3.5 mph5.6 kmh 29.81 in1009.5 mb - 0.00 in0.0 mm 0.00 in0.0 mm
11:10 AM 77.9°F25.5°C 73.0°F22.8°C 85% 1.2 mph E1.9 kmh E 3.5 mph5.6 kmh 29.80 in1009.1 mb - 0.00 in0.0 mm 0.00 in0.0 mm
11:15 AM 78.1°F25.6°C 72.9°F22.7°C 84% 3.5 mph NE5.6 kmh NE 3.5 mph5.6 kmh 29.80 in1009.1 mb - 0.00 in0.0 mm 0.00 in0.0 mm
11:20 AM 78.1°F25.6°C 72.9°F22.7°C 84% 2.3 mph ESE3.7 kmh ESE 3.5 mph5.6 kmh 29.80 in1009.1 mb - 0.00 in0.0 mm 0.00 in0.0 mm
11:25 AM 78.2°F25.7°C 72.6°F22.6°C 83% 1.2 mph E1.9 kmh E 2.3 mph3.7 kmh 29.80 in1009.1 mb - 0.00 in0.0 mm 0.00 in0.0 mm
11:30 AM 78.7°F25.9°C 74.1°F23.4°C 86% 2.3 mph SE3.7 kmh SE 3.5 mph5.6 kmh 29.80 in1009.1 mb - 0.00 in0.0 mm 0.00 in0.0 mm
11:35 AM 78.5°F25.8°C 73.3°F22.9°C 84% 1.2 mph SE1.9 kmh SE 3.5 mph5.6 kmh 29.80 in1009.1 mb - 0.00 in0.0 mm 0.00 in0.0 mm
11:40 AM 79.3°F26.3°C 74.8°F23.8°C 86% 1.2 mph SSE1.9 kmh SSE 3.5 mph5.6 kmh 29.80 in1009.1 mb - 0.00 in0.0 mm 0.00 in0.0 mm
11:45 AM 79.3°F26.3°C 73.3°F22.9°C 82% 3.5 mph SSW5.6 kmh SSW 3.5 mph5.6 kmh 29.80 in1009.1 mb - 0.00 in0.0 mm 0.00 in0.0 mm
11:50 AM 79.5°F26.4°C 73.5°F23.1°C 82% 1.2 mph N1.9 kmh N 2.3 mph3.7 kmh 29.80 in1009.1 mb - 0.00 in0.0 mm 0.00 in0.0 mm
11:55 AM 79.8°F26.6°C 73.4°F23.0°C 81% 3.5 mph NW5.6 kmh NW 3.5 mph5.6 kmh 29.79 in1008.8 mb - 0.00 in0.0 mm 0.00 in0.0 mm
12:00 PM 79.9°F26.6°C 74.3°F23.5°C 83% 2.3 mph S3.7 kmh S 4.6 mph7.4 kmh 29.79 in1008.8 mb - 0.00 in0.0 mm 0.00 in0.0 mm
12:10 PM 79.8°F26.6°C 74.2°F23.4°C 83% 1.2 mph S1.9 kmh S 2.3 mph3.7 kmh 29.79 in1008.8 mb - 0.00 in0.0 mm 0.00 in0.0 mm
12:15 PM 80.4°F26.9°C 73.3°F22.9°C 79% 1.2 mph WNW1.9 kmh WNW 2.3 mph3.7 kmh 29.79 in1008.8 mb - 0.00 in0.0 mm 0.00 in0.0 mm
12:20 PM 80.9°F27.2°C 75.3°F24.1°C 83% 2.3 mph NW3.7 kmh NW 4.6 mph7.4 kmh 29.79 in1008.8 mb - 0.00 in0.0 mm 0.00 in0.0 mm
12:25 PM 81.1°F27.3°C 74.7°F23.7°C 81% 5.8 mph NW9.3 kmh NW 5.8 mph9.3 kmh 29.79 in1008.8 mb - 0.00 in0.0 mm 0.00 in0.0 mm
12:30 PM 81.3°F27.4°C 74.5°F23.6°C 80% 2.3 mph WNW3.7 kmh WNW 3.5 mph5.6 kmh 29.80 in1009.1 mb - 0.00 in0.0 mm 0.00 in0.0 mm
12:35 PM 81.4°F27.4°C 73.9°F23.3°C 78% 4.6 mph WNW7.4 kmh WNW 6.9 mph11.1 kmh 29.80 in1009.1 mb - 0.00 in0.0 mm 0.00 in0.0 mm
12:40 PM 81.2°F27.3°C 74.0°F23.3°C 79% 4.6 mph NW7.4 kmh NW 5.8 mph9.3 kmh 29.80 in1009.1 mb - 0.00 in0.0 mm 0.00 in0.0 mm
12:45 PM 81.7°F27.6°C 75.3°F24.1°C 81% 5.8 mph NW9.3 kmh NW 10.4 mph16.7 kmh 29.79 in1008.8 mb - 0.00 in0.0 mm 0.00 in0.0 mm
12:50 PM 82.0°F27.8°C 75.6°F24.2°C 81% 5.8 mph NW9.3 kmh NW 8.1 mph13.0 kmh 29.79 in1008.8 mb - 0.00 in0.0 mm 0.00 in0.0 mm
12:55 PM 82.9°F28.3°C 76.9°F24.9°C 82% 3.5 mph NW5.6 kmh NW 5.8 mph9.3 kmh 29.79 in1008.8 mb - 0.00 in0.0 mm 0.00 in0.0 mm
01:00 PM 82.1°F27.8°C 75.3°F24.1°C 80% 3.5 mph NW5.6 kmh NW 5.8 mph9.3 kmh 29.79 in1008.8 mb - 0.00 in0.0 mm 0.00 in0.0 mm
01:10 PM 81.9°F27.7°C 75.1°F23.9°C 80% 4.6 mph NW7.4 kmh NW 3.5 mph5.6 kmh 29.79 in1008.8 mb - 0.00 in0.0 mm 0.00 in0.0 mm
01:15 PM 82.2°F27.9°C 75.0°F23.9°C 79% 3.5 mph N5.6 kmh N 4.6 mph7.4 kmh 29.79 in1008.8 mb - 0.00 in0.0 mm 0.00 in0.0 mm
01:20 PM 82.1°F27.8°C 75.3°F24.1°C 80% 2.3 mph NNW3.7 kmh NNW 4.6 mph7.4 kmh 29.79 in1008.8 mb - 0.00 in0.0 mm 0.00 in0.0 mm
01:25 PM 82.7°F28.2°C 75.6°F24.2°C 79% 3.5 mph SW5.6 kmh SW 4.6 mph7.4 kmh 29.79 in1008.8 mb - 0.00 in0.0 mm 0.00 in0.0 mm
01:30 PM 83.2°F28.4°C 75.6°F24.2°C 78% 2.3 mph WNW3.7 kmh WNW 3.5 mph5.6 kmh 29.79 in1008.8 mb - 0.00 in0.0 mm 0.00 in0.0 mm
01:35 PM 82.9°F28.3°C 75.3°F24.1°C 78% 3.5 mph NW5.6 kmh NW 4.6 mph7.4 kmh 29.79 in1008.8 mb - 0.00 in0.0 mm 0.00 in0.0 mm
01:40 PM 83.5°F28.6°C 76.3°F24.6°C 79% 2.3 mph WNW3.7 kmh WNW 5.8 mph9.3 kmh 29.79 in1008.8 mb - 0.00 in0.0 mm 0.00 in0.0 mm
01:45 PM 83.4°F28.6°C 76.2°F24.6°C 79% 4.6 mph NW7.4 kmh NW 6.9 mph11.1 kmh 29.79 in1008.8 mb - 0.00 in0.0 mm 0.00 in0.0 mm
01:50 PM 83.7°F28.7°C 76.4°F24.7°C 79% 3.5 mph NW5.6 kmh NW 6.9 mph11.1 kmh 29.79 in1008.8 mb - 0.00 in0.0 mm 0.00 in0.0 mm
01:55 PM 84.4°F29.1°C 77.6°F25.3°C 80% 2.3 mph SW3.7 kmh SW 2.3 mph3.7 kmh 29.79 in1008.8 mb - 0.00 in0.0 mm 0.00 in0.0 mm
02:00 PM 85.0°F29.4°C 77.4°F25.2°C 78% 3.5 mph WNW5.6 kmh WNW 5.8 mph9.3 kmh 29.79 in1008.8 mb - 0.00 in0.0 mm 0.00 in0.0 mm
02:10 PM 84.2°F29.0°C 76.2°F24.6°C 77% 5.8 mph WNW9.3 kmh WNW 8.1 mph13.0 kmh 29.79 in1008.8 mb - 0.00 in0.0 mm 0.00 in0.0 mm
02:15 PM 84.4°F29.1°C 76.4°F24.7°C 77% 6.9 mph NW11.1 kmh NW 9.2 mph14.8 kmh 29.79 in1008.8 mb - 0.00 in0.0 mm 0.00 in0.0 mm
02:20 PM 84.0°F28.9°C 77.2°F25.1°C 80% 4.6 mph NW7.4 kmh NW 5.8 mph9.3 kmh 29.79 in1008.8 mb - 0.00 in0.0 mm 0.00 in0.0 mm
02:25 PM 84.6°F29.2°C 76.6°F24.8°C 77% 4.6 mph WNW7.4 kmh WNW 5.8 mph9.3 kmh 29.79 in1008.8 mb - 0.00 in0.0 mm 0.00 in0.0 mm
02:30 PM 84.0°F28.9°C 76.8°F24.9°C 79% 5.8 mph NW9.3 kmh NW 10.4 mph16.7 kmh 29.79 in1008.8 mb - 0.00 in0.0 mm 0.00 in0.0 mm
02:35 PM 84.3°F29.1°C 75.5°F24.2°C 75% 4.6 mph WNW7.4 kmh WNW 8.1 mph13.0 kmh 29.79 in1008.8 mb - 0.00 in0.0 mm 0.00 in0.0 mm
02:40 PM 84.4°F29.1°C 76.8°F24.9°C 78% 3.5 mph NW5.6 kmh NW 6.9 mph11.1 kmh 29.79 in1008.8 mb - 0.00 in0.0 mm 0.00 in0.0 mm
02:45 PM 84.7°F29.3°C 76.7°F24.8°C 77% 5.8 mph WNW9.3 kmh WNW 8.1 mph13.0 kmh 29.79 in1008.8 mb - 0.00 in0.0 mm 0.00 in0.0 mm
02:50 PM 84.8°F29.3°C 77.2°F25.1°C 78% 6.9 mph NW11.1 kmh NW 13.8 mph22.2 kmh 29.79 in1008.8 mb - 0.00 in0.0 mm 0.00 in0.0 mm
02:55 PM 84.8°F29.3°C 76.4°F24.7°C 76% 4.6 mph WNW7.4 kmh WNW 11.5 mph18.5 kmh 29.79 in1008.8 mb - 0.00 in0.0 mm 0.00 in0.0 mm
03:00 PM 84.3°F29.1°C 75.9°F24.4°C 76% 4.6 mph NW7.4 kmh NW 10.4 mph16.7 kmh 29.79 in1008.8 mb - 0.00 in0.0 mm 0.00 in0.0 mm
03:10 PM 85.2°F29.6°C 76.8°F24.9°C 76% 9.2 mph NW14.8 kmh NW 8.1 mph13.0 kmh 29.79 in1008.8 mb - 0.00 in0.0 mm 0.00 in0.0 mm
03:15 PM 85.3°F29.6°C 76.9°F24.9°C 76% 5.8 mph NW9.3 kmh NW 9.2 mph14.8 kmh 29.79 in1008.8 mb - 0.00 in0.0 mm 0.00 in0.0 mm
03:20 PM 85.1°F29.5°C 77.1°F25.1°C 77% 4.6 mph WNW7.4 kmh WNW 8.1 mph13.0 kmh 29.80 in1009.1 mb - 0.00 in0.0 mm 0.00 in0.0 mm
03:25 PM 85.2°F29.6°C 77.6°F25.3°C 78% 6.9 mph NW11.1 kmh NW 11.5 mph18.5 kmh 29.80 in1009.1 mb - 0.00 in0.0 mm 0.00 in0.0 mm
03:30 PM 85.3°F29.6°C 77.7°F25.4°C 78% 5.8 mph WNW9.3 kmh WNW 9.2 mph14.8 kmh 29.79 in1008.8 mb - 0.00 in0.0 mm 0.00 in0.0 mm
03:35 PM 85.4°F29.7°C 76.6°F24.8°C 75% 9.2 mph NW14.8 kmh NW 10.4 mph16.7 kmh 29.79 in1008.8 mb - 0.00 in0.0 mm 0.00 in0.0 mm
03:40 PM 84.7°F29.3°C 76.7°F24.8°C 77% 9.2 mph NW14.8 kmh NW 11.5 mph18.5 kmh 29.79 in1008.8 mb - 0.00 in0.0 mm 0.00 in0.0 mm
03:45 PM 85.0°F29.4°C 76.2°F24.6°C 75% 5.8 mph NW9.3 kmh NW 10.4 mph16.7 kmh 29.79 in1008.8 mb - 0.00 in0.0 mm 0.00 in0.0 mm
03:50 PM 85.4°F29.7°C 77.7°F25.4°C 78% 8.1 mph NW13.0 kmh NW 11.5 mph18.5 kmh 29.79 in1008.8 mb - 0.00 in0.0 mm 0.00 in0.0 mm
03:55 PM 85.1°F29.5°C 76.7°F24.8°C 76% 9.2 mph NW14.8 kmh NW 11.5 mph18.5 kmh 29.79 in1008.8 mb - 0.00 in0.0 mm 0.00 in0.0 mm
04:00 PM 84.7°F29.3°C 76.7°F24.8°C 77% 6.9 mph NW11.1 kmh NW 11.5 mph18.5 kmh 29.79 in1008.8 mb - 0.00 in0.0 mm 0.00 in0.0 mm
04:10 PM 84.3°F29.1°C 76.3°F24.6°C 77% 4.6 mph NW7.4 kmh NW 9.2 mph14.8 kmh 29.79 in1008.8 mb - 0.00 in0.0 mm 0.00 in0.0 mm
04:15 PM 85.4°F29.7°C 77.0°F25.0°C 76% 8.1 mph NW13.0 kmh NW 11.5 mph18.5 kmh 29.79 in1008.8 mb - 0.00 in0.0 mm 0.00 in0.0 mm
04:20 PM 85.4°F29.7°C 77.0°F25.0°C 76% 9.2 mph NW14.8 kmh NW 13.8 mph22.2 kmh 29.79 in1008.8 mb - 0.00 in0.0 mm 0.00 in0.0 mm
04:25 PM 85.3°F29.6°C 75.7°F24.3°C 73% 11.5 mph NW18.5 kmh NW 12.7 mph20.4 kmh 29.79 in1008.8 mb - 0.00 in0.0 mm 0.00 in0.0 mm
04:30 PM 84.8°F29.3°C 75.6°F24.2°C 74% 11.5 mph NNW18.5 kmh NNW 13.8 mph22.2 kmh 29.79 in1008.8 mb - 0.00 in0.0 mm 0.00 in0.0 mm
04:35 PM 84.8°F29.3°C 75.2°F24.0°C 73% 11.5 mph NW18.5 kmh NW 15.0 mph24.1 kmh 29.79 in1008.8 mb - 0.00 in0.0 mm 0.00 in0.0 mm
04:40 PM 84.5°F29.2°C 76.1°F24.5°C 76% 10.4 mph NNW16.7 kmh NNW 13.8 mph22.2 kmh 29.80 in1009.1 mb - 0.00 in0.0 mm 0.00 in0.0 mm
04:45 PM 84.7°F29.3°C 74.7°F23.7°C 72% 10.4 mph NW16.7 kmh NW 13.8 mph22.2 kmh 29.80 in1009.1 mb - 0.00 in0.0 mm 0.00 in0.0 mm
04:50 PM 84.7°F29.3°C 74.7°F23.7°C 72% 11.5 mph NW18.5 kmh NW 16.1 mph25.9 kmh 29.80 in1009.1 mb - 0.00 in0.0 mm 0.00 in0.0 mm
04:55 PM 84.7°F29.3°C 75.1°F23.9°C 73% 9.2 mph NNW14.8 kmh NNW 11.5 mph18.5 kmh 29.80 in1009.1 mb - 0.00 in0.0 mm 0.00 in0.0 mm
05:00 PM 84.7°F29.3°C 75.1°F23.9°C 73% 10.4 mph NW16.7 kmh NW 12.7 mph20.4 kmh 29.80 in1009.1 mb - 0.00 in0.0 mm 0.00 in0.0 mm
05:10 PM 84.5°F29.2°C 74.9°F23.8°C 73% 9.2 mph NW14.8 kmh NW 12.7 mph20.4 kmh 29.80 in1009.1 mb - 0.00 in0.0 mm 0.00 in0.0 mm
05:15 PM 84.7°F29.3°C 75.5°F24.2°C 74% 10.4 mph NW16.7 kmh NW 12.7 mph20.4 kmh 29.80 in1009.1 mb - 0.00 in0.0 mm 0.00 in0.0 mm
05:20 PM 84.6°F29.2°C 75.4°F24.1°C 74% 8.1 mph NW13.0 kmh NW 10.4 mph16.7 kmh 29.80 in1009.1 mb - 0.00 in0.0 mm 0.00 in0.0 mm
05:25 PM 84.9°F29.4°C 75.2°F24.0°C 73% 9.2 mph NW14.8 kmh NW 11.5 mph18.5 kmh 29.80 in1009.1 mb - 0.00 in0.0 mm 0.00 in0.0 mm
05:30 PM 84.8°F29.3°C 74.3°F23.5°C 71% 11.5 mph NW18.5 kmh NW 13.8 mph22.2 kmh 29.80 in1009.1 mb - 0.00 in0.0 mm 0.00 in0.0 mm
05:35 PM 84.7°F29.3°C 74.7°F23.7°C 72% 6.9 mph NW11.1 kmh NW 9.2 mph14.8 kmh 29.80 in1009.1 mb - 0.00 in0.0 mm 0.00 in0.0 mm
05:40 PM 84.6°F29.2°C 74.2°F23.4°C 71% 9.2 mph NW14.8 kmh NW 9.2 mph14.8 kmh 29.80 in1009.1 mb - 0.00 in0.0 mm 0.00 in0.0 mm
05:45 PM 84.6°F29.2°C 74.2°F23.4°C 71% 9.2 mph NW14.8 kmh NW 12.7 mph20.4 kmh 29.80 in1009.1 mb - 0.00 in0.0 mm 0.00 in0.0 mm
05:50 PM 84.5°F29.2°C 73.2°F22.9°C 69% 8.1 mph NW13.0 kmh NW 10.4 mph16.7 kmh 29.80 in1009.1 mb - 0.00 in0.0 mm 0.00 in0.0 mm
05:55 PM 84.4°F29.1°C 73.1°F22.8°C 69% 8.1 mph NW13.0 kmh NW 11.5 mph18.5 kmh 29.80 in1009.1 mb - 0.00 in0.0 mm 0.00 in0.0 mm
06:00 PM 84.4°F29.1°C 73.1°F22.8°C 69% 8.1 mph NW13.0 kmh NW 10.4 mph16.7 kmh 29.80 in1009.1 mb - 0.00 in0.0 mm 0.00 in0.0 mm
06:10 PM 84.2°F29.0°C 73.8°F23.2°C 71% 6.9 mph NW11.1 kmh NW 9.2 mph14.8 kmh 29.80 in1009.1 mb - 0.00 in0.0 mm 0.00 in0.0 mm
06:15 PM 84.1°F28.9°C 73.7°F23.2°C 71% 8.1 mph NW13.0 kmh NW 10.4 mph16.7 kmh 29.80 in1009.1 mb - 0.00 in0.0 mm 0.00 in0.0 mm
06:20 PM 84.0°F28.9°C 74.0°F23.3°C 72% 5.8 mph NW9.3 kmh NW 9.2 mph14.8 kmh 29.79 in1008.8 mb - 0.00 in0.0 mm 0.00 in0.0 mm
06:25 PM 83.9°F28.8°C 73.9°F23.3°C 72% 6.9 mph NW11.1 kmh NW 10.4 mph16.7 kmh 29.79 in1008.8 mb - 0.00 in0.0 mm 0.00 in0.0 mm
06:30 PM 83.8°F28.8°C 73.8°F23.2°C 72% 5.8 mph NW9.3 kmh NW 6.9 mph11.1 kmh 29.79 in1008.8 mb - 0.00 in0.0 mm 0.00 in0.0 mm
06:35 PM 83.5°F28.6°C 74.0°F23.3°C 73% 6.9 mph NW11.1 kmh NW 8.1 mph13.0 kmh 29.79 in1008.8 mb - 0.00 in0.0 mm 0.00 in0.0 mm
06:40 PM 83.2°F28.4°C 74.0°F23.3°C 74% 8.1 mph NW13.0 kmh NW 10.4 mph16.7 kmh 29.79 in1008.8 mb - 0.00 in0.0 mm 0.00 in0.0 mm
06:45 PM 83.1°F28.4°C 74.4°F23.6°C 75% 5.8 mph NW9.3 kmh NW 9.2 mph14.8 kmh 29.79 in1008.8 mb - 0.00 in0.0 mm 0.00 in0.0 mm
06:50 PM 82.9°F28.3°C 74.2°F23.4°C 75% 5.8 mph NW9.3 kmh NW 6.9 mph11.1 kmh 29.79 in1008.8 mb - 0.00 in0.0 mm 0.00 in0.0 mm
06:55 PM 82.8°F28.2°C 74.1°F23.4°C 75% 5.8 mph NW9.3 kmh NW 6.9 mph11.1 kmh 29.79 in1008.8 mb - 0.00 in0.0 mm 0.00 in0.0 mm
07:00 PM 82.7°F28.2°C 74.4°F23.6°C 76% 4.6 mph NW7.4 kmh NW 5.8 mph9.3 kmh 29.79 in1008.8 mb - 0.00 in0.0 mm 0.00 in0.0 mm
07:10 PM 82.6°F28.1°C 74.7°F23.7°C 77% 4.6 mph NW7.4 kmh NW 5.8 mph9.3 kmh 29.79 in1008.8 mb - 0.00 in0.0 mm 0.00 in0.0 mm
07:15 PM 82.6°F28.1°C 75.0°F23.9°C 78% 3.5 mph NW5.6 kmh NW 4.6 mph7.4 kmh 29.79 in1008.8 mb - 0.00 in0.0 mm 0.00 in0.0 mm
07:20 PM 82.3°F27.9°C 74.8°F23.8°C 78% 4.6 mph NW7.4 kmh NW 4.6 mph7.4 kmh 29.79 in1008.8 mb - 0.00 in0.0 mm 0.00 in0.0 mm
07:25 PM 82.2°F27.9°C 74.6°F23.7°C 78% 3.5 mph NW5.6 kmh NW 4.6 mph7.4 kmh 29.79 in1008.8 mb - 0.00 in0.0 mm 0.00 in0.0 mm
07:30 PM 81.9°F27.7°C 74.7°F23.7°C 79% 3.5 mph NW5.6 kmh NW 3.5 mph5.6 kmh 29.79 in1008.8 mb - 0.00 in0.0 mm 0.00 in0.0 mm
07:35 PM 81.7°F27.6°C 74.2°F23.4°C 78% 4.6 mph NW7.4 kmh NW 4.6 mph7.4 kmh 29.79 in1008.8 mb - 0.00 in0.0 mm 0.00 in0.0 mm
07:40 PM 81.5°F27.5°C 74.3°F23.5°C 79% 3.5 mph NW5.6 kmh NW 3.5 mph5.6 kmh 29.79 in1008.8 mb - 0.00 in0.0 mm 0.00 in0.0 mm
07:45 PM 81.2°F27.3°C 74.1°F23.4°C 79% 3.5 mph NW5.6 kmh NW 4.6 mph7.4 kmh 29.79 in1008.8 mb - 0.00 in0.0 mm 0.00 in0.0 mm
07:50 PM 80.9°F27.2°C 74.2°F23.4°C 80% 3.5 mph NW5.6 kmh NW 3.5 mph5.6 kmh 29.79 in1008.8 mb - 0.00 in0.0 mm 0.00 in0.0 mm
07:55 PM 80.7°F27.1°C 74.3°F23.5°C 81% 2.3 mph NW3.7 kmh NW 3.5 mph5.6 kmh 29.79 in1008.8 mb - 0.00 in0.0 mm 0.00 in0.0 mm
08:00 PM 80.6°F27.0°C 73.9°F23.3°C 80% 3.5 mph NW5.6 kmh NW 3.5 mph5.6 kmh 29.79 in1008.8 mb - 0.00 in0.0 mm 0.00 in0.0 mm
08:10 PM 80.1°F26.7°C 74.1°F23.4°C 82% 2.3 mph NW3.7 kmh NW 3.5 mph5.6 kmh 29.79 in1008.8 mb - 0.00 in0.0 mm 0.00 in0.0 mm
08:15 PM 79.7°F26.5°C 74.1°F23.4°C 83% 2.3 mph NW3.7 kmh NW 3.5 mph5.6 kmh 29.79 in1008.8 mb - 0.00 in0.0 mm 0.00 in0.0 mm
08:20 PM 79.3°F26.3°C 74.0°F23.3°C 84% 2.3 mph NW3.7 kmh NW 3.5 mph5.6 kmh 29.79 in1008.8 mb - 0.00 in0.0 mm 0.00 in0.0 mm
08:25 PM 78.9°F26.1°C 74.0°F23.3°C 85% 2.3 mph NW3.7 kmh NW 3.5 mph5.6 kmh 29.79 in1008.8 mb - 0.00 in0.0 mm 0.00 in0.0 mm
08:30 PM 78.4°F25.8°C 73.9°F23.3°C 86% 2.3 mph NW3.7 kmh NW 3.5 mph5.6 kmh 29.79 in1008.8 mb - 0.00 in0.0 mm 0.00 in0.0 mm
08:35 PM 78.2°F25.7°C 73.7°F23.2°C 86% 2.3 mph NW3.7 kmh NW 3.5 mph5.6 kmh 29.79 in1008.8 mb - 0.00 in0.0 mm 0.00 in0.0 mm
08:40 PM 78.0°F25.6°C 73.5°F23.1°C 86% 2.3 mph NW3.7 kmh NW 2.3 mph3.7 kmh 29.79 in1008.8 mb - 0.00 in0.0 mm 0.00 in0.0 mm
08:45 PM 78.0°F25.6°C 73.5°F23.1°C 86% 2.3 mph NW3.7 kmh NW 3.5 mph5.6 kmh 29.79 in1008.8 mb - 0.00 in0.0 mm 0.00 in0.0 mm
08:50 PM 78.1°F25.6°C 73.6°F23.1°C 86% 2.3 mph NW3.7 kmh NW 3.5 mph5.6 kmh 29.79 in1008.8 mb - 0.00 in0.0 mm 0.00 in0.0 mm
08:55 PM 77.9°F25.5°C 73.3°F22.9°C 86% 1.2 mph NW1.9 kmh NW 3.5 mph5.6 kmh 29.80 in1009.1 mb - 0.00 in0.0 mm 0.00 in0.0 mm
09:00 PM 77.4°F25.2°C 73.2°F22.9°C 87% 2.3 mph NW3.7 kmh NW 3.5 mph5.6 kmh 29.80 in1009.1 mb - 0.00 in0.0 mm 0.00 in0.0 mm
09:10 PM 76.9°F24.9°C 73.1°F22.8°C 88% 2.3 mph NW3.7 kmh NW 3.5 mph5.6 kmh 29.80 in1009.1 mb - 0.00 in0.0 mm 0.00 in0.0 mm
09:15 PM 76.9°F24.9°C 72.7°F22.6°C 87% 1.2 mph NW1.9 kmh NW 2.3 mph3.7 kmh 29.80 in1009.1 mb - 0.00 in0.0 mm 0.00 in0.0 mm
09:20 PM 76.8°F24.9°C 72.6°F22.6°C 87% 2.3 mph NW3.7 kmh NW 2.3 mph3.7 kmh 29.80 in1009.1 mb - 0.00 in0.0 mm 0.00 in0.0 mm
09:25 PM 76.5°F24.7°C 72.7°F22.6°C 88% Calm Calm 1.2 mph1.9 kmh 29.80 in1009.1 mb - 0.00 in0.0 mm 0.00 in0.0 mm
09:30 PM 76.1°F24.5°C 72.3°F22.4°C 88% Calm Calm -- 29.80 in1009.1 mb - 0.00 in0.0 mm 0.00 in0.0 mm
09:35 PM 75.8°F24.3°C 72.0°F22.2°C 88% Calm Calm -- 29.81 in1009.5 mb - 0.00 in0.0 mm 0.00 in0.0 mm
09:40 PM 75.4°F24.1°C 72.0°F22.2°C 89% Calm Calm 2.3 mph3.7 kmh 29.81 in1009.5 mb - 0.00 in0.0 mm 0.00 in0.0 mm
09:45 PM 75.7°F24.3°C 71.6°F22.0°C 87% Calm Calm 2.3 mph3.7 kmh 29.81 in1009.5 mb - 0.00 in0.0 mm 0.00 in0.0 mm
09:50 PM 75.4°F24.1°C 71.6°F22.0°C 88% Calm Calm -- 29.81 in1009.5 mb - 0.00 in0.0 mm 0.00 in0.0 mm
09:55 PM 74.8°F23.8°C 71.4°F21.9°C 89% 1.2 mph W1.9 kmh W 2.3 mph3.7 kmh 29.81 in1009.5 mb - 0.00 in0.0 mm 0.00 in0.0 mm
10:00 PM 74.3°F23.5°C 71.2°F21.8°C 90% 1.2 mph WNW1.9 kmh WNW 2.3 mph3.7 kmh 29.81 in1009.5 mb - 0.00 in0.0 mm 0.00 in0.0 mm
10:10 PM 73.6°F23.1°C 71.1°F21.7°C 92% Calm Calm -- 29.82 in1009.8 mb - 0.00 in0.0 mm 0.00 in0.0 mm
10:15 PM 73.9°F23.3°C 71.1°F21.7°C 91% Calm Calm -- 29.82 in1009.8 mb - 0.00 in0.0 mm 0.00 in0.0 mm
10:20 PM 74.2°F23.4°C 71.0°F21.7°C 90% Calm Calm -- 29.82 in1009.8 mb - 0.00 in0.0 mm 0.00 in0.0 mm
10:25 PM 74.4°F23.6°C 70.9°F21.6°C 89% Calm Calm -- 29.82 in1009.8 mb - 0.00 in0.0 mm 0.00 in0.0 mm
10:30 PM 74.5°F23.6°C 71.0°F21.7°C 89% Calm Calm -- 29.82 in1009.8 mb - 0.00 in0.0 mm 0.00 in0.0 mm
10:35 PM 74.4°F23.6°C 70.9°F21.6°C 89% Calm Calm 1.2 mph1.9 kmh 29.82 in1009.8 mb - 0.00 in0.0 mm 0.00 in0.0 mm
10:40 PM 74.1°F23.4°C 70.7°F21.5°C 89% Calm Calm -- 29.82 in1009.8 mb - 0.00 in0.0 mm 0.00 in0.0 mm
10:45 PM 73.7°F23.2°C 70.5°F21.4°C 90% Calm Calm -- 29.82 in1009.8 mb - 0.00 in0.0 mm 0.00 in0.0 mm
10:50 PM 73.5°F23.1°C 70.7°F21.5°C 91% Calm Calm -- 29.82 in1009.8 mb - 0.00 in0.0 mm 0.00 in0.0 mm
10:55 PM 73.2°F22.9°C 70.4°F21.3°C 91% Calm Calm 1.2 mph1.9 kmh 29.82 in1009.8 mb - 0.00 in0.0 mm 0.00 in0.0 mm
11:00 PM 72.8°F22.7°C 70.3°F21.3°C 92% 2.3 mph WNW3.7 kmh WNW 3.5 mph5.6 kmh 29.82 in1009.8 mb - 0.00 in0.0 mm 0.00 in0.0 mm
11:10 PM 72.4°F22.4°C 70.5°F21.4°C 94% 1.2 mph SW1.9 kmh SW 2.3 mph3.7 kmh 29.82 in1009.8 mb - 0.00 in0.0 mm 0.00 in0.0 mm
11:15 PM 72.4°F22.4°C 70.2°F21.2°C 93% Calm Calm -- 29.81 in1009.5 mb - 0.00 in0.0 mm 0.00 in0.0 mm
11:20 PM 72.2°F22.3°C 70.3°F21.3°C 94% Calm Calm -- 29.81 in1009.5 mb - 0.00 in0.0 mm 0.00 in0.0 mm
11:25 PM 71.7°F22.1°C 69.9°F21.1°C 94% Calm Calm -- 29.81 in1009.5 mb - 0.00 in0.0 mm 0.00 in0.0 mm
11:30 PM 71.5°F21.9°C 69.7°F20.9°C 94% Calm Calm -- 29.81 in1009.5 mb - 0.00 in0.0 mm 0.00 in0.0 mm
11:35 PM 71.6°F22.0°C 70.1°F21.2°C 95% Calm Calm -- 29.81 in1009.5 mb - 0.00 in0.0 mm 0.00 in0.0 mm
11:40 PM 71.4°F21.9°C 69.5°F20.8°C 94% Calm Calm -- 29.81 in1009.5 mb - 0.00 in0.0 mm 0.00 in0.0 mm
11:45 PM 70.9°F21.6°C 69.4°F20.8°C 95% Calm Calm -- 29.81 in1009.5 mb - 0.00 in0.0 mm 0.00 in0.0 mm
11:50 PM 70.7°F21.5°C 69.2°F20.7°C 95% Calm Calm -- 29.80 in1009.1 mb - 0.00 in0.0 mm 0.00 in0.0 mm
11:55 PM 70.4°F21.3°C 69.2°F20.7°C 96% 1.2 mph SW1.9 kmh SW 1.2 mph1.9 kmh 29.80 in1009.1 mb - 0.00 in0.0 mm 0.00 in0.0 mm